sensor_id;sensor_type;location;lat;lon;timestamp;pressure;altitude;pressure_sealevel;temperature;humidity
49825;BME280;35714;55.708;37.478;2023-04-07T00:00:20;100251.84;;;5.90;37.26
49825;BME280;35714;55.708;37.478;2023-04-07T00:02:45;100254.91;;;5.87;37.51
49825;BME280;35714;55.708;37.478;2023-04-07T00:05:11;100250.72;;;5.84;37.56
49825;BME280;35714;55.708;37.478;2023-04-07T00:07:37;100257.31;;;5.82;38.03
49825;BME280;35714;55.708;37.478;2023-04-07T00:10:03;100253.59;;;5.83;37.75
49825;BME280;35714;55.708;37.478;2023-04-07T00:12:28;100251.44;;;5.78;38.09
49825;BME280;35714;55.708;37.478;2023-04-07T00:14:54;100253.50;;;5.76;38.21
49825;BME280;35714;55.708;37.478;2023-04-07T00:17:20;100257.19;;;5.75;38.27
49825;BME280;35714;55.708;37.478;2023-04-07T00:19:46;100250.97;;;5.74;38.39
49825;BME280;35714;55.708;37.478;2023-04-07T00:22:11;100253.84;;;5.73;38.49
49825;BME280;35714;55.708;37.478;2023-04-07T00:24:37;100242.25;;;5.72;38.43
49825;BME280;35714;55.708;37.478;2023-04-07T00:27:02;100249.84;;;5.69;38.34
49825;BME280;35714;55.708;37.478;2023-04-07T00:29:28;100253.38;;;5.69;38.40
49825;BME280;35714;55.708;37.478;2023-04-07T00:31:54;100244.66;;;5.67;38.36
49825;BME280;35714;55.708;37.478;2023-04-07T00:34:20;100252.53;;;5.69;38.32
49825;BME280;35714;55.708;37.478;2023-04-07T00:36:46;100250.03;;;5.67;38.58
49825;BME280;35714;55.708;37.478;2023-04-07T00:39:20;100251.06;;;5.66;38.55
49825;BME280;35714;55.708;37.478;2023-04-07T00:41:46;100255.59;;;5.66;38.44
49825;BME280;35714;55.708;37.478;2023-04-07T00:44:12;100250.56;;;5.63;38.56
49825;BME280;35714;55.708;37.478;2023-04-07T00:46:38;100246.22;;;5.62;38.88
49825;BME280;35714;55.708;37.478;2023-04-07T00:49:05;100244.91;;;5.57;38.90
49825;BME280;35714;55.708;37.478;2023-04-07T00:51:31;100255.50;;;5.59;38.77
49825;BME280;35714;55.708;37.478;2023-04-07T00:53:57;100244.09;;;5.57;39.01
49825;BME280;35714;55.708;37.478;2023-04-07T00:56:23;100251.47;;;5.55;39.07
49825;BME280;35714;55.708;37.478;2023-04-07T00:58:48;100245.63;;;5.51;39.14
49825;BME280;35714;55.708;37.478;2023-04-07T01:01:18;100249.38;;;5.50;39.42
49825;BME280;35714;55.708;37.478;2023-04-07T01:04:11;100244.81;;;5.51;39.27
49825;BME280;35714;55.708;37.478;2023-04-07T01:06:43;100246.19;;;5.47;39.42
49825;BME280;35714;55.708;37.478;2023-04-07T01:09:22;100249.22;;;5.43;39.45
49825;BME280;35714;55.708;37.478;2023-04-07T01:14:41;100253.31;;;5.39;39.76
49825;BME280;35714;55.708;37.478;2023-04-07T01:17:30;100257.09;;;5.30;39.60
49825;BME280;35714;55.708;37.478;2023-04-07T01:19:58;100258.56;;;5.33;39.48
49825;BME280;35714;55.708;37.478;2023-04-07T01:22:32;100256.41;;;5.28;39.35
49825;BME280;35714;55.708;37.478;2023-04-07T01:30:12;100258.81;;;5.23;39.96
49825;BME280;35714;55.708;37.478;2023-04-07T01:32:43;100253.78;;;5.20;40.07
49825;BME280;35714;55.708;37.478;2023-04-07T01:35:12;100250.44;;;5.18;39.90
49825;BME280;35714;55.708;37.478;2023-04-07T01:37:39;100259.50;;;5.17;39.98
49825;BME280;35714;55.708;37.478;2023-04-07T01:40:06;100251.63;;;5.15;39.76
49825;BME280;35714;55.708;37.478;2023-04-07T01:42:33;100249.28;;;5.12;39.80
49825;BME280;35714;55.708;37.478;2023-04-07T01:44:59;100248.81;;;5.09;39.73
49825;BME280;35714;55.708;37.478;2023-04-07T01:47:27;100256.06;;;5.08;39.85
49825;BME280;35714;55.708;37.478;2023-04-07T01:49:57;100253.06;;;5.03;39.92
49825;BME280;35714;55.708;37.478;2023-04-07T01:52:25;100250.53;;;5.01;40.05
49825;BME280;35714;55.708;37.478;2023-04-07T01:54:52;100250.94;;;4.98;39.91
49825;BME280;35714;55.708;37.478;2023-04-07T01:57:19;100259.16;;;4.97;39.76
49825;BME280;35714;55.708;37.478;2023-04-07T01:59:47;100251.28;;;4.95;40.09
49825;BME280;35714;55.708;37.478;2023-04-07T02:02:14;100255.97;;;4.93;40.01
49825;BME280;35714;55.708;37.478;2023-04-07T02:04:50;100252.00;;;4.89;40.43
49825;BME280;35714;55.708;37.478;2023-04-07T02:07:28;100263.41;;;4.91;40.35
49825;BME280;35714;55.708;37.478;2023-04-07T02:09:56;100261.88;;;4.88;40.25
49825;BME280;35714;55.708;37.478;2023-04-07T02:12:26;100250.66;;;4.85;40.15
49825;BME280;35714;55.708;37.478;2023-04-07T02:15:03;100255.38;;;4.83;40.29
49825;BME280;35714;55.708;37.478;2023-04-07T02:17:31;100260.06;;;4.81;40.37
49825;BME280;35714;55.708;37.478;2023-04-07T02:20:00;100260.06;;;4.81;40.60
49825;BME280;35714;55.708;37.478;2023-04-07T02:22:26;100255.41;;;4.75;40.57
49825;BME280;35714;55.708;37.478;2023-04-07T02:24:53;100261.13;;;4.72;40.55
49825;BME280;35714;55.708;37.478;2023-04-07T02:27:24;100246.28;;;4.61;40.92
49825;BME280;35714;55.708;37.478;2023-04-07T02:29:51;100261.88;;;4.65;40.91
49825;BME280;35714;55.708;37.478;2023-04-07T02:32:17;100259.34;;;4.64;40.87
49825;BME280;35714;55.708;37.478;2023-04-07T02:34:43;100262.22;;;4.62;40.84
49825;BME280;35714;55.708;37.478;2023-04-07T02:37:08;100264.22;;;4.60;40.86
49825;BME280;35714;55.708;37.478;2023-04-07T02:39:34;100254.69;;;4.58;40.89
49825;BME280;35714;55.708;37.478;2023-04-07T02:42:00;100259.19;;;4.57;41.00
49825;BME280;35714;55.708;37.478;2023-04-07T02:44:28;100260.41;;;4.55;41.13
49825;BME280;35714;55.708;37.478;2023-04-07T02:46:53;100254.88;;;4.48;40.98
49825;BME280;35714;55.708;37.478;2023-04-07T02:49:19;100258.41;;;4.48;41.01
49825;BME280;35714;55.708;37.478;2023-04-07T02:51:44;100263.97;;;4.47;41.07
49825;BME280;35714;55.708;37.478;2023-04-07T02:54:11;100275.69;;;4.46;41.28
49825;BME280;35714;55.708;37.478;2023-04-07T02:56:36;100266.34;;;4.42;41.54
49825;BME280;35714;55.708;37.478;2023-04-07T02:59:02;100275.38;;;4.41;41.30
49825;BME280;35714;55.708;37.478;2023-04-07T03:01:31;100270.84;;;4.41;41.40
49825;BME280;35714;55.708;37.478;2023-04-07T03:03:59;100270.03;;;4.41;41.39
49825;BME280;35714;55.708;37.478;2023-04-07T03:06:25;100268.34;;;4.40;41.57
49825;BME280;35714;55.708;37.478;2023-04-07T03:09:17;100269.03;;;4.42;41.57
49825;BME280;35714;55.708;37.478;2023-04-07T03:11:43;100259.97;;;4.34;41.51
49825;BME280;35714;55.708;37.478;2023-04-07T03:14:09;100261.94;;;4.49;41.56
49825;BME280;35714;55.708;37.478;2023-04-07T03:16:42;100267.94;;;4.51;41.57
49825;BME280;35714;55.708;37.478;2023-04-07T03:19:10;100266.28;;;4.50;41.50
49825;BME280;35714;55.708;37.478;2023-04-07T03:21:41;100271.16;;;4.55;41.51
49825;BME280;35714;55.708;37.478;2023-04-07T03:24:07;100267.78;;;4.52;41.46
49825;BME280;35714;55.708;37.478;2023-04-07T03:26:33;100274.47;;;4.57;41.62
49825;BME280;35714;55.708;37.478;2023-04-07T03:29:00;100268.94;;;4.58;41.55
49825;BME280;35714;55.708;37.478;2023-04-07T03:31:28;100269.94;;;4.57;41.40
49825;BME280;35714;55.708;37.478;2023-04-07T03:33:55;100269.59;;;4.60;41.28
49825;BME280;35714;55.708;37.478;2023-04-07T03:36:21;100275.28;;;4.65;41.36
49825;BME280;35714;55.708;37.478;2023-04-07T03:38:47;100284.00;;;4.67;41.14
49825;BME280;35714;55.708;37.478;2023-04-07T03:41:15;100279.28;;;4.69;41.20
49825;BME280;35714;55.708;37.478;2023-04-07T03:43:40;100283.31;;;4.74;41.29
49825;BME280;35714;55.708;37.478;2023-04-07T03:46:06;100284.97;;;4.75;41.31
49825;BME280;35714;55.708;37.478;2023-04-07T03:48:33;100285.66;;;4.77;41.20
49825;BME280;35714;55.708;37.478;2023-04-07T03:51:06;100286.47;;;4.77;41.10
49825;BME280;35714;55.708;37.478;2023-04-07T03:53:33;100284.78;;;4.76;40.96
49825;BME280;35714;55.708;37.478;2023-04-07T03:56:05;100296.50;;;4.83;40.98
49825;BME280;35714;55.708;37.478;2023-04-07T03:58:43;100296.81;;;4.88;40.96
49825;BME280;35714;55.708;37.478;2023-04-07T04:01:15;100298.81;;;4.95;41.03
49825;BME280;35714;55.708;37.478;2023-04-07T04:03:43;100297.28;;;5.00;40.61
49825;BME280;35714;55.708;37.478;2023-04-07T04:06:29;100293.88;;;5.06;40.82
49825;BME280;35714;55.708;37.478;2023-04-07T04:09:16;100294.16;;;5.12;40.72
49825;BME280;35714;55.708;37.478;2023-04-07T04:11:45;100295.50;;;5.16;40.64
49825;BME280;35714;55.708;37.478;2023-04-07T04:14:12;100288.72;;;5.20;40.60
49825;BME280;35714;55.708;37.478;2023-04-07T04:16:38;100302.50;;;5.25;40.44
49825;BME280;35714;55.708;37.478;2023-04-07T04:19:13;100303.97;;;5.28;40.41
49825;BME280;35714;55.708;37.478;2023-04-07T04:21:38;100296.19;;;5.33;40.35
49825;BME280;35714;55.708;37.478;2023-04-07T04:24:05;100300.03;;;5.38;40.32
49825;BME280;35714;55.708;37.478;2023-04-07T04:26:31;100303.69;;;5.46;40.27
49825;BME280;35714;55.708;37.478;2023-04-07T04:29:03;100300.94;;;5.54;40.21
49825;BME280;35714;55.708;37.478;2023-04-07T04:31:29;100308.66;;;5.57;39.73
49825;BME280;35714;55.708;37.478;2023-04-07T04:33:55;100313.94;;;5.65;39.72
49825;BME280;35714;55.708;37.478;2023-04-07T04:36:23;100305.97;;;5.72;40.01
49825;BME280;35714;55.708;37.478;2023-04-07T04:38:53;100305.06;;;5.79;39.67
49825;BME280;35714;55.708;37.478;2023-04-07T04:41:21;100305.00;;;5.88;39.43
49825;BME280;35714;55.708;37.478;2023-04-07T04:43:49;100307.63;;;5.96;39.31
49825;BME280;35714;55.708;37.478;2023-04-07T04:46:19;100308.31;;;5.98;39.39
49825;BME280;35714;55.708;37.478;2023-04-07T04:48:47;100306.94;;;6.02;39.39
49825;BME280;35714;55.708;37.478;2023-04-07T04:51:15;100314.06;;;6.10;39.03
49825;BME280;35714;55.708;37.478;2023-04-07T04:53:46;100314.56;;;6.13;38.89
49825;BME280;35714;55.708;37.478;2023-04-07T04:56:12;100314.47;;;6.22;38.46
49825;BME280;35714;55.708;37.478;2023-04-07T04:58:40;100317.63;;;6.25;38.38
49825;BME280;35714;55.708;37.478;2023-04-07T05:01:12;100314.69;;;6.35;38.29
49825;BME280;35714;55.708;37.478;2023-04-07T05:03:46;100323.50;;;6.44;38.36
49825;BME280;35714;55.708;37.478;2023-04-07T05:06:17;100318.38;;;6.49;38.02
49825;BME280;35714;55.708;37.478;2023-04-07T05:08:44;100317.53;;;6.48;38.07
49825;BME280;35714;55.708;37.478;2023-04-07T05:11:12;100326.25;;;6.50;38.26
49825;BME280;35714;55.708;37.478;2023-04-07T05:13:39;100330.09;;;6.56;38.25
49825;BME280;35714;55.708;37.478;2023-04-07T05:16:05;100327.66;;;6.61;37.74
49825;BME280;35714;55.708;37.478;2023-04-07T05:18:33;100320.31;;;6.70;37.97
49825;BME280;35714;55.708;37.478;2023-04-07T05:20:59;100324.84;;;6.84;37.58
49825;BME280;35714;55.708;37.478;2023-04-07T05:23:26;100333.09;;;6.98;37.65
49825;BME280;35714;55.708;37.478;2023-04-07T05:25:52;100333.00;;;7.06;37.43
49825;BME280;35714;55.708;37.478;2023-04-07T05:28:18;100327.41;;;7.08;37.14
49825;BME280;35714;55.708;37.478;2023-04-07T05:30:44;100328.25;;;7.08;37.23
49825;BME280;35714;55.708;37.478;2023-04-07T05:33:10;100327.88;;;7.11;37.23
49825;BME280;35714;55.708;37.478;2023-04-07T05:35:48;100335.47;;;7.22;37.00
49825;BME280;35714;55.708;37.478;2023-04-07T05:38:14;100335.13;;;7.32;36.87
49825;BME280;35714;55.708;37.478;2023-04-07T05:40:41;100340.25;;;7.42;36.89
49825;BME280;35714;55.708;37.478;2023-04-07T05:43:10;100342.44;;;7.53;36.70
49825;BME280;35714;55.708;37.478;2023-04-07T05:45:37;100345.56;;;7.57;36.32
49825;BME280;35714;55.708;37.478;2023-04-07T05:48:03;100342.25;;;7.55;36.16
49825;BME280;35714;55.708;37.478;2023-04-07T05:50:37;100339.34;;;7.56;36.14
49825;BME280;35714;55.708;37.478;2023-04-07T05:53:07;100328.75;;;7.55;36.06
49825;BME280;35714;55.708;37.478;2023-04-07T05:55:33;100336.75;;;7.70;36.06
49825;BME280;35714;55.708;37.478;2023-04-07T05:57:59;100347.94;;;7.88;35.75
49825;BME280;35714;55.708;37.478;2023-04-07T06:00:28;100337.91;;;8.04;35.46
49825;BME280;35714;55.708;37.478;2023-04-07T06:03:14;100335.47;;;8.16;35.18
49825;BME280;35714;55.708;37.478;2023-04-07T06:05:56;100346.03;;;8.39;34.95
49825;BME280;35714;55.708;37.478;2023-04-07T06:08:23;100348.69;;;8.60;34.78
49825;BME280;35714;55.708;37.478;2023-04-07T06:10:48;100338.41;;;8.84;34.27
49825;BME280;35714;55.708;37.478;2023-04-07T06:13:14;100349.38;;;9.17;34.10
49825;BME280;35714;55.708;37.478;2023-04-07T06:15:41;100349.25;;;9.46;33.14
49825;BME280;35714;55.708;37.478;2023-04-07T06:18:08;100352.00;;;9.72;32.94
49825;BME280;35714;55.708;37.478;2023-04-07T06:20:34;100354.72;;;10.13;32.76
49825;BME280;35714;55.708;37.478;2023-04-07T06:23:00;100358.03;;;10.55;32.43
49825;BME280;35714;55.708;37.478;2023-04-07T06:25:26;100341.47;;;10.90;32.09
49825;BME280;35714;55.708;37.478;2023-04-07T06:27:53;100355.88;;;11.35;31.22
49825;BME280;35714;55.708;37.478;2023-04-07T06:30:19;100355.59;;;11.82;30.92
49825;BME280;35714;55.708;37.478;2023-04-07T06:32:45;100363.34;;;12.36;30.25
49825;BME280;35714;55.708;37.478;2023-04-07T06:35:11;100354.44;;;12.84;29.51
49825;BME280;35714;55.708;37.478;2023-04-07T06:37:36;100349.91;;;13.33;29.13
49825;BME280;35714;55.708;37.478;2023-04-07T06:40:05;100361.75;;;13.69;27.94
49825;BME280;35714;55.708;37.478;2023-04-07T06:42:31;100357.41;;;13.92;27.15
49825;BME280;35714;55.708;37.478;2023-04-07T06:45:05;100361.50;;;14.25;27.33
49825;BME280;35714;55.708;37.478;2023-04-07T06:47:31;100370.88;;;14.76;26.90
49825;BME280;35714;55.708;37.478;2023-04-07T06:49:57;100374.19;;;15.31;26.23
49825;BME280;35714;55.708;37.478;2023-04-07T06:52:23;100370.03;;;15.86;25.68
49825;BME280;35714;55.708;37.478;2023-04-07T06:54:48;100366.91;;;16.45;25.22
49825;BME280;35714;55.708;37.478;2023-04-07T06:57:14;100365.53;;;17.04;24.59
49825;BME280;35714;55.708;37.478;2023-04-07T06:59:39;100369.50;;;17.62;23.88
49825;BME280;35714;55.708;37.478;2023-04-07T07:02:06;100367.13;;;17.98;22.74
49825;BME280;35714;55.708;37.478;2023-04-07T07:04:33;100363.97;;;18.17;22.19
49825;BME280;35714;55.708;37.478;2023-04-07T07:06:59;100366.84;;;18.32;21.83
49825;BME280;35714;55.708;37.478;2023-04-07T07:09:24;100369.47;;;18.60;20.91
49825;BME280;35714;55.708;37.478;2023-04-07T07:11:51;100376.44;;;18.72;21.41
49825;BME280;35714;55.708;37.478;2023-04-07T07:14:17;100369.97;;;18.94;21.23
49825;BME280;35714;55.708;37.478;2023-04-07T07:16:43;100365.16;;;19.27;21.01
49825;BME280;35714;55.708;37.478;2023-04-07T07:19:08;100368.63;;;19.80;20.16
49825;BME280;35714;55.708;37.478;2023-04-07T07:21:35;100370.84;;;20.19;19.59
49825;BME280;35714;55.708;37.478;2023-04-07T07:24:02;100360.31;;;20.58;19.43
49825;BME280;35714;55.708;37.478;2023-04-07T07:26:28;100377.88;;;21.03;19.14
49825;BME280;35714;55.708;37.478;2023-04-07T07:28:53;100378.63;;;21.24;18.41
49825;BME280;35714;55.708;37.478;2023-04-07T07:31:19;100371.13;;;21.30;18.37
49825;BME280;35714;55.708;37.478;2023-04-07T07:33:44;100372.16;;;21.44;18.14
49825;BME280;35714;55.708;37.478;2023-04-07T07:36:12;100373.81;;;21.55;17.39
49825;BME280;35714;55.708;37.478;2023-04-07T07:38:38;100371.44;;;21.78;17.26
49825;BME280;35714;55.708;37.478;2023-04-07T07:41:05;100366.75;;;22.13;16.98
49825;BME280;35714;55.708;37.478;2023-04-07T07:43:31;100366.03;;;22.37;16.97
49825;BME280;35714;55.708;37.478;2023-04-07T07:45:57;100369.41;;;22.58;16.57
49825;BME280;35714;55.708;37.478;2023-04-07T07:48:22;100374.31;;;22.90;16.21
49825;BME280;35714;55.708;37.478;2023-04-07T07:50:48;100375.47;;;23.32;16.23
49825;BME280;35714;55.708;37.478;2023-04-07T07:53:15;100373.50;;;23.57;15.58
49825;BME280;35714;55.708;37.478;2023-04-07T07:55:40;100368.75;;;23.76;15.11
49825;BME280;35714;55.708;37.478;2023-04-07T07:58:06;100375.34;;;23.81;15.14
49825;BME280;35714;55.708;37.478;2023-04-07T08:00:31;100369.06;;;23.94;14.72
49825;BME280;35714;55.708;37.478;2023-04-07T08:02:57;100379.13;;;23.90;14.25
49825;BME280;35714;55.708;37.478;2023-04-07T08:05:23;100375.56;;;23.65;14.61
49825;BME280;35714;55.708;37.478;2023-04-07T08:07:48;100365.47;;;23.74;14.80
49825;BME280;35714;55.708;37.478;2023-04-07T08:10:14;100377.75;;;24.06;14.60
49825;BME280;35714;55.708;37.478;2023-04-07T08:12:39;100373.41;;;24.33;14.27
49825;BME280;35714;55.708;37.478;2023-04-07T08:15:06;100375.41;;;24.46;13.86
49825;BME280;35714;55.708;37.478;2023-04-07T08:17:35;100366.81;;;24.76;13.76
49825;BME280;35714;55.708;37.478;2023-04-07T08:20:00;100364.59;;;24.92;13.09
49825;BME280;35714;55.708;37.478;2023-04-07T08:22:26;100365.94;;;24.47;13.34
49825;BME280;35714;55.708;37.478;2023-04-07T08:24:51;100358.34;;;24.39;13.66
49825;BME280;35714;55.708;37.478;2023-04-07T08:27:17;100353.06;;;24.57;13.54
49825;BME280;35714;55.708;37.478;2023-04-07T08:29:43;100355.75;;;25.03;13.30
49825;BME280;35714;55.708;37.478;2023-04-07T08:32:08;100352.81;;;25.50;13.28
49825;BME280;35714;55.708;37.478;2023-04-07T08:34:34;100349.25;;;25.95;13.03
49825;BME280;35714;55.708;37.478;2023-04-07T08:37:00;100357.47;;;26.23;12.48
49825;BME280;35714;55.708;37.478;2023-04-07T08:39:25;100345.16;;;26.15;11.68
49825;BME280;35714;55.708;37.478;2023-04-07T08:41:54;100359.69;;;25.89;11.67
49825;BME280;35714;55.708;37.478;2023-04-07T08:44:20;100355.38;;;25.83;12.46
49825;BME280;35714;55.708;37.478;2023-04-07T08:46:47;100353.09;;;25.85;11.86
49825;BME280;35714;55.708;37.478;2023-04-07T08:49:16;100343.13;;;25.62;11.28
49825;BME280;35714;55.708;37.478;2023-04-07T08:51:46;100358.91;;;25.38;12.22
49825;BME280;35714;55.708;37.478;2023-04-07T08:54:15;100351.34;;;25.53;12.47
49825;BME280;35714;55.708;37.478;2023-04-07T08:56:41;100360.69;;;25.93;12.21
49825;BME280;35714;55.708;37.478;2023-04-07T08:59:11;100354.47;;;26.42;11.63
49825;BME280;35714;55.708;37.478;2023-04-07T09:01:36;100352.84;;;26.72;11.39
49825;BME280;35714;55.708;37.478;2023-04-07T09:04:03;100359.59;;;26.48;10.76
49825;BME280;35714;55.708;37.478;2023-04-07T09:06:30;100355.50;;;26.23;11.20
49825;BME280;35714;55.708;37.478;2023-04-07T09:08:57;100349.56;;;26.39;11.53
49825;BME280;35714;55.708;37.478;2023-04-07T09:11:22;100348.28;;;26.45;11.12
49825;BME280;35714;55.708;37.478;2023-04-07T09:13:49;100349.56;;;26.70;11.59
49825;BME280;35714;55.708;37.478;2023-04-07T09:16:16;100349.88;;;27.17;11.00
49825;BME280;35714;55.708;37.478;2023-04-07T09:18:41;100351.94;;;27.52;11.39
49825;BME280;35714;55.708;37.478;2023-04-07T09:21:08;100349.50;;;27.59;10.81
49825;BME280;35714;55.708;37.478;2023-04-07T09:23:37;100349.50;;;27.59;11.07
49825;BME280;35714;55.708;37.478;2023-04-07T09:26:26;100350.50;;;27.98;10.38
49825;BME280;35714;55.708;37.478;2023-04-07T09:28:54;100353.72;;;28.18;10.49
49825;BME280;35714;55.708;37.478;2023-04-07T09:31:46;100348.88;;;28.62;10.54
49825;BME280;35714;55.708;37.478;2023-04-07T09:34:25;100339.50;;;28.67;9.58
49825;BME280;35714;55.708;37.478;2023-04-07T09:36:52;100345.75;;;28.55;9.59
49825;BME280;35714;55.708;37.478;2023-04-07T09:39:18;100341.00;;;28.47;10.38
49825;BME280;35714;55.708;37.478;2023-04-07T09:41:44;100340.81;;;28.69;9.94
49825;BME280;35714;55.708;37.478;2023-04-07T09:44:09;100344.75;;;28.68;9.76
49825;BME280;35714;55.708;37.478;2023-04-07T09:46:57;100348.41;;;28.90;9.71
49825;BME280;35714;55.708;37.478;2023-04-07T09:49:26;100332.16;;;29.22;9.54
49825;BME280;35714;55.708;37.478;2023-04-07T09:52:00;100337.81;;;29.55;9.37
49825;BME280;35714;55.708;37.478;2023-04-07T09:54:36;100336.94;;;29.84;9.30
49825;BME280;35714;55.708;37.478;2023-04-07T09:57:03;100339.84;;;30.21;9.27
49825;BME280;35714;55.708;37.478;2023-04-07T09:59:30;100333.31;;;30.63;9.38
49825;BME280;35714;55.708;37.478;2023-04-07T10:01:57;100342.31;;;30.93;8.68
49825;BME280;35714;55.708;37.478;2023-04-07T10:04:26;100345.59;;;30.95;8.16
49825;BME280;35714;55.708;37.478;2023-04-07T10:06:52;100342.78;;;30.71;8.46
49825;BME280;35714;55.708;37.478;2023-04-07T10:09:19;100335.22;;;30.26;8.65
49825;BME280;35714;55.708;37.478;2023-04-07T10:11:46;100350.00;;;30.14;8.76
49825;BME280;35714;55.708;37.478;2023-04-07T10:14:14;100346.72;;;30.12;8.90
49825;BME280;35714;55.708;37.478;2023-04-07T10:16:41;100349.31;;;30.17;8.61
49825;BME280;35714;55.708;37.478;2023-04-07T10:19:07;100356.31;;;30.35;8.55
49825;BME280;35714;55.708;37.478;2023-04-07T10:21:39;100345.81;;;30.66;8.36
49825;BME280;35714;55.708;37.478;2023-04-07T10:26:40;100342.75;;;30.58;8.30
49825;BME280;35714;55.708;37.478;2023-04-07T10:29:09;100339.03;;;30.67;8.39
49825;BME280;35714;55.708;37.478;2023-04-07T10:31:37;100343.56;;;30.59;8.56
49825;BME280;35714;55.708;37.478;2023-04-07T10:34:03;100344.41;;;30.14;8.24
49825;BME280;35714;55.708;37.478;2023-04-07T10:36:30;100355.28;;;29.73;8.62
49825;BME280;35714;55.708;37.478;2023-04-07T10:44:04;100349.69;;;28.54;9.07
49825;BME280;35714;55.708;37.478;2023-04-07T10:49:16;100352.75;;;29.08;8.93
49825;BME280;35714;55.708;37.478;2023-04-07T10:51:42;100348.19;;;29.04;9.06
49825;BME280;35714;55.708;37.478;2023-04-07T10:54:21;100346.97;;;29.13;9.03
49825;BME280;35714;55.708;37.478;2023-04-07T10:59:33;100350.34;;;28.59;9.31
49825;BME280;35714;55.708;37.478;2023-04-07T11:04:39;100349.94;;;28.14;9.70
49825;BME280;35714;55.708;37.478;2023-04-07T11:07:06;100344.72;;;27.86;9.60
49825;BME280;35714;55.708;37.478;2023-04-07T11:09:31;100349.16;;;27.61;9.08
49825;BME280;35714;55.708;37.478;2023-04-07T11:11:57;100346.78;;;27.10;9.09
49825;BME280;35714;55.708;37.478;2023-04-07T11:14:30;100335.41;;;26.26;9.61
49825;BME280;35714;55.708;37.478;2023-04-07T11:16:56;100328.56;;;25.79;10.33
49825;BME280;35714;55.708;37.478;2023-04-07T11:19:22;100328.09;;;25.63;10.46
49825;BME280;35714;55.708;37.478;2023-04-07T11:21:48;100336.44;;;25.63;10.80
49825;BME280;35714;55.708;37.478;2023-04-07T11:26:58;100341.06;;;25.03;10.97
49825;BME280;35714;55.708;37.478;2023-04-07T11:29:28;100341.38;;;24.88;11.14
49825;BME280;35714;55.708;37.478;2023-04-07T11:31:57;100341.56;;;24.77;11.09
49825;BME280;35714;55.708;37.478;2023-04-07T11:34:31;100342.28;;;24.69;11.08
49825;BME280;35714;55.708;37.478;2023-04-07T11:37:18;100329.84;;;24.80;11.04
49825;BME280;35714;55.708;37.478;2023-04-07T11:39:43;100333.84;;;25.02;10.71
49825;BME280;35714;55.708;37.478;2023-04-07T11:42:12;100332.28;;;25.37;10.75
49825;BME280;35714;55.708;37.478;2023-04-07T11:44:46;100329.69;;;25.78;10.60
49825;BME280;35714;55.708;37.478;2023-04-07T11:47:12;100330.16;;;25.80;10.45
49825;BME280;35714;55.708;37.478;2023-04-07T11:49:44;100319.63;;;25.68;10.50
49825;BME280;35714;55.708;37.478;2023-04-07T11:52:13;100331.69;;;25.86;10.39
49825;BME280;35714;55.708;37.478;2023-04-07T11:54:45;100322.28;;;26.18;9.92
49825;BME280;35714;55.708;37.478;2023-04-07T11:57:12;100331.00;;;26.57;9.89
49825;BME280;35714;55.708;37.478;2023-04-07T11:59:39;100344.28;;;26.60;9.67
49825;BME280;35714;55.708;37.478;2023-04-07T12:02:05;100335.75;;;27.05;9.57
49825;BME280;35714;55.708;37.478;2023-04-07T12:04:31;100327.03;;;27.64;9.09
49825;BME280;35714;55.708;37.478;2023-04-07T12:07:06;100340.53;;;28.36;8.55
49825;BME280;35714;55.708;37.478;2023-04-07T12:09:33;100329.91;;;29.06;8.30
49825;BME280;35714;55.708;37.478;2023-04-07T12:12:04;100334.53;;;29.74;8.09
49825;BME280;35714;55.708;37.478;2023-04-07T12:14:34;100335.47;;;30.33;8.30
49825;BME280;35714;55.708;37.478;2023-04-07T12:17:00;100348.13;;;30.76;8.05
49825;BME280;35714;55.708;37.478;2023-04-07T12:19:29;100338.47;;;30.98;7.46
49825;BME280;35714;55.708;37.478;2023-04-07T12:21:57;100333.91;;;31.30;7.43
49825;BME280;35714;55.708;37.478;2023-04-07T12:24:22;100322.66;;;31.55;7.29
49825;BME280;35714;55.708;37.478;2023-04-07T12:26:48;100337.31;;;31.64;7.21
49825;BME280;35714;55.708;37.478;2023-04-07T12:29:16;100340.16;;;31.52;7.03
49825;BME280;35714;55.708;37.478;2023-04-07T12:31:41;100323.88;;;31.17;7.12
49825;BME280;35714;55.708;37.478;2023-04-07T12:34:08;100334.13;;;30.39;7.40
49825;BME280;35714;55.708;37.478;2023-04-07T12:36:34;100322.16;;;29.42;7.99
49825;BME280;35714;55.708;37.478;2023-04-07T12:38:59;100320.94;;;28.06;8.34
49825;BME280;35714;55.708;37.478;2023-04-07T12:41:25;100329.72;;;27.03;9.20
49825;BME280;35714;55.708;37.478;2023-04-07T12:43:51;100319.69;;;26.53;9.46
49825;BME280;35714;55.708;37.478;2023-04-07T12:46:17;100316.88;;;26.44;9.96
49825;BME280;35714;55.708;37.478;2023-04-07T12:48:43;100317.09;;;26.57;10.03
49825;BME280;35714;55.708;37.478;2023-04-07T12:51:09;100308.84;;;26.83;10.17
49825;BME280;35714;55.708;37.478;2023-04-07T12:53:35;100313.41;;;27.36;9.58
49825;BME280;35714;55.708;37.478;2023-04-07T12:56:00;100324.88;;;27.96;9.69
49825;BME280;35714;55.708;37.478;2023-04-07T12:58:26;100315.28;;;28.41;9.08
49825;BME280;35714;55.708;37.478;2023-04-07T13:00:52;100310.78;;;28.66;9.26
49825;BME280;35714;55.708;37.478;2023-04-07T13:03:18;100323.09;;;28.95;9.24
49825;BME280;35714;55.708;37.478;2023-04-07T13:05:44;100309.34;;;29.11;8.88
49825;BME280;35714;55.708;37.478;2023-04-07T13:08:09;100319.38;;;29.42;8.70
49825;BME280;35714;55.708;37.478;2023-04-07T13:10:35;100310.63;;;29.64;8.40
49825;BME280;35714;55.708;37.478;2023-04-07T13:13:01;100326.97;;;29.96;8.10
49825;BME280;35714;55.708;37.478;2023-04-07T13:15:26;100324.91;;;30.05;8.00
49825;BME280;35714;55.708;37.478;2023-04-07T13:17:53;100322.56;;;30.07;8.56